• Join FlightAware (Why Join?)
  • Login
  • US Flag 
09:07AM EDT


 

Airport Tracker/Info


-or-


 

Live Flight TrackerFlight Track Log ✈ EJA929 ✈ 13-Jun-2013 ✈ KRST - KBJC

Flight Track Log - Related Links

Times and Time Zones

All times are in EDT time to prevent confusion due to time zone crossing. See the EJA929 flight status page for this flight to view local times or setup timezone preferences in your user account.

Time Position Orientation Groundspeed Altitude Reporting Facility
EDT Latitude Longitude Course Direction KTS MPH feet Rate Location/Type
07:13PM 43.9294 -92.5281 277° West 189 217 2,600  Level Minneapolis Center
07:14PM 43.9375 -92.6228 277° West 256 295 6,300 3,000 Climbing Minneapolis Center
07:15PM 43.8733 -92.6769 211° Southwest 289 333 8,900 2,100 Climbing Minneapolis Center
07:16PM 43.8056 -92.7350 212° Southwest 309 356 10,700 1,740 Climbing Minneapolis Center
07:17PM 43.7422 -92.8247 226° Southwest 323 372 12,600 2,100 Climbing Minneapolis Center
07:18PM 43.7186 -92.9711 257° West 331 381 15,100 2,160 Climbing Minneapolis Center
07:19PM 43.7128 -93.0997 266° West 335 386 17,100 1,680 Climbing Minneapolis Center
07:20PM 43.7086 -93.2231 267° West 340 391 18,600 1,500 Climbing Minneapolis Center
07:21PM 43.7014 -93.3628 266° West 359 413 20,200 1,740 Climbing Minneapolis Center
07:22PM 43.6942 -93.5347 267° West 373 429 22,200 1,680 Climbing Minneapolis Center
07:23PM 43.6872 -93.6811 266° West 380 437 23,800 1,500 Climbing Minneapolis Center
07:24PM 43.6789 -93.8300 266° West 388 447 25,400 1,500 Climbing Minneapolis Center
07:25PM 43.6708 -93.9842 266° West 398 458 27,000 1,500 Climbing Minneapolis Center
07:26PM 43.6625 -94.1414 266° West 406 467 28,600 1,620 Climbing Minneapolis Center
07:27PM 43.6517 -94.3219 265° West 409 471 30,400 1,620 Climbing Minneapolis Center
07:28PM 43.6358 -94.4814 262° West 417 480 32,000 1,500 Climbing Minneapolis Center
07:29PM 43.5967 -94.6367 251° West 425 489 33,600 1,500 Climbing Minneapolis Center
07:30PM 43.5603 -94.7942 252° West 429 494 35,200 1,500 Climbing Minneapolis Center
07:31PM 43.5233 -94.9500 252° West 428 493 36,800 1,560 Climbing Minneapolis Center
07:32PM 43.4792 -95.1386 252° West 430 495 38,500 1,260 Climbing Minneapolis Center
07:33PM 43.4397 -95.3011 252° West 443 510 39,500 720 Climbing Minneapolis Center
07:34PM 43.4003 -95.4656 252° West 450 518 40,100 240 Climbing Minneapolis Center
07:35PM 43.3586 -95.6344 251° West 462 532 40,100  Level Minneapolis Center
07:36PM 43.3167 -95.8089 252° West 476 548 40,100  Level Minneapolis Center
07:37PM 43.2744 -95.9831 252° West 479 551 40,100  Level Minneapolis Center
07:39PM 43.2317 -96.1542 251° West 476 548 40,100  Level Minneapolis Center
07:40PM 43.1794 -96.3608 251° West 476 548 40,100  Level Minneapolis Center
07:41PM 43.1364 -96.5367 252° West 482 555 40,100 -60 Level Minneapolis Center
07:42PM 43.0917 -96.7067 250° West 478 550 40,000  Descending Minneapolis Center
07:43PM 43.0469 -96.8792 251° West 479 551 40,100  Climbing Minneapolis Center
07:44PM 43.0039 -97.0528 251° West 481 554 40,100  Level Minneapolis Center
07:45PM 42.9592 -97.2239 250° West 481 554 40,100  Level Minneapolis Center
07:46PM 42.9039 -97.4289 250° West 480 552 40,100  Level Minneapolis Center
07:47PM 42.8492 -97.5956 246° West 483 556 40,100  Level Minneapolis Center
07:48PM 42.7914 -97.7600 244° Southwest 483 556 40,100  Level Minneapolis Center
07:49PM 42.7356 -97.9225 245° Southwest 479 551 40,100  Level Minneapolis Center
07:50PM 42.6803 -98.0858 245° Southwest 477 549 40,100  Level Minneapolis Center
07:51PM 42.6217 -98.2536 245° Southwest 476 548 40,100  Level Minneapolis Center
07:52PM 42.5650 -98.4175 245° Southwest 480 552 40,100 -60 Level Minneapolis Center
07:53PM 42.4958 -98.6139 245° Southwest 481 554 40,000  Descending Minneapolis Center
07:54PM 42.4422 -98.7786 246° West 480 552 40,100  Climbing Minneapolis Center
07:55PM 42.3942 -98.9475 249° West 482 555 40,100  Level Minneapolis Center
07:56PM 42.3433 -99.1139 248° West 481 554 40,100  Level Minneapolis Center
07:57PM 42.2947 -99.2794 248° West 478 550 40,100  Level Minneapolis Center
07:58PM 42.2344 -99.4758 248° West 473 544 40,100  Level Minneapolis Center
08:02PM 42.0344 -100.1267 248° West 473 544 40,100  Level Minneapolis Center
08:03PM 41.9758 -100.3178 248° West 467 537 40,100 -60 Level Minneapolis Center
08:04PM 41.9392 -100.4583 251° West 472 543 40,000  Descending Denver Center
08:05PM 41.9264 -100.6531 265° West 472 543 40,100  Climbing Denver Center
08:06PM 41.9172 -100.8217 266° West 474 545 40,100  Level Denver Center
08:08PM 41.9047 -101.0131 265° West 466 536 40,100  Level Denver Center
08:09PM 41.8936 -101.2064 266° West 466 536 40,100  Level Denver Center
08:10PM 41.8811 -101.4003 265° West 467 537 40,100  Level Denver Center
08:11PM 41.8706 -101.5614 265° West 455 524 40,100  Level Denver Center
08:12PM 41.8592 -101.7181 264° West 444 511 40,100  Level Denver Center
08:13PM 41.8469 -101.8983 265° West 438 504 40,100  Level Denver Center
08:14PM 41.8344 -102.0836 265° West 447 514 40,100  Level Denver Center
08:15PM 41.8208 -102.2606 264° West 457 526 40,100  Level Denver Center
08:16PM 41.8089 -102.4256 265° West 463 533 40,100  Level Denver Center
08:17PM 41.7936 -102.6181 264° West 465 535 40,100  Level Denver Center
08:18PM 41.7814 -102.7789 264° West 455 524 40,100  Level Denver Center
08:19PM 41.7706 -102.9136 264° West 454 522 40,100  Level Denver Center
08:20PM 41.7533 -103.1278 264° West 452 520 40,100  Level Denver Center
08:21PM 41.7406 -103.2881 264° West 453 521 40,100 -60 Level Denver Center
08:22PM 41.7242 -103.4764 263° West 456 525 40,000  Descending Denver Center
08:23PM 41.7106 -103.6381 264° West 457 526 40,100 -420 Climbing Denver Center
08:24PM 41.6953 -103.8258 264° West 455 524 39,200 -960 Descending Denver Center
08:25PM 41.6803 -103.9881 263° West 457 526 38,200 -660 Descending Denver Center
08:27PM 41.6566 -104.2004 262° West  Level FlightAware Approximate
08:27PM 41.6497 -104.3197 262° West 470 541 37,300  Level Denver Center
08:28PM 41.6317 -104.5311 264° West 453 521 35,700 -1,080 Descending Denver Center
08:29PM 41.6150 -104.6958 262° West 464 534 35,100 -1,200 Descending Denver Center
08:30PM 41.5981 -104.8908 263° West 471 542 33,300 -2,040 Descending Denver Center
08:32PM 41.5755 -105.0765 262° West  Level FlightAware Approximate
08:32PM 41.5656 -105.2164 262° West 462 532 28,900  Level Denver Center
08:33PM 41.5467 -105.4061 262° West 461 531 27,300 -2,760 Descending Denver Center
08:36PM 41.4433 -105.6828 244° Southwest 416 479 20,400 -3,480 Descending Denver Center
08:37PM 41.3319 -105.6686 175° South 423 487 16,600 -2,100 Descending Denver Center
08:38PM 41.2144 -105.6411 170° South 389 448 16,100 -300 Descending Denver Center
08:39PM 41.1181 -105.6183 170° South 371 427 16,100  Level Denver Center
08:40PM 41.0050 -105.5903 169° South 382 440 16,100  Level Denver Center
08:41PM 40.8953 -105.5642 170° South 398 458 16,100  Level Denver Center
08:42PM 40.7681 -105.5336 170° South 390 449 16,100 -60 Level Denver Center
08:43PM 40.6644 -105.5111 171° South 379 436 16,000 -60 Descending Denver Center
08:44PM 40.5506 -105.4831 169° South 350 403 16,000  Level Denver Center
08:45PM 40.4639 -105.4625 170° South 322 371 16,000 -480 Level Denver Center
08:46PM 40.3611 -105.4231 164° South 322 371 15,000 -840 Descending Denver Center
08:47PM 40.2747 -105.3650 153° Southeast 323 372 14,100 -1,020 Descending Denver Center
08:48PM 40.1942 -105.3100 152° Southeast 326 375 13,000 -1,140 Descending Denver Center
08:49PM 40.1061 -105.2564 155° Southeast 325 374 11,800 -1,380 Descending Denver Center
08:50PM 40.0342 -105.1994 149° Southeast 307 353 10,200 -1,620 Descending Denver Center
08:52PM 39.9869 -105.1056 123° Southeast 287 330 8,200 -1,080 Descending Denver Center
08:53PM 39.9317 -105.0281 133° Southeast 220 253 7,800 -780 Descending Denver Center
08:54PM 39.8931 -105.0478 201° Southwest 157 181 6,700 -1,020 Descending Denver Center
08:55PM 39.9014 -105.1022 281° West 151 174 5,700 -1,020 Descending Denver Center
08:57PM 39.9000 -105.1167 333° Northwest  Level FlightAware Approximate
09:04PM 39.9088 -105.1172 333° Northwest  Level Estimated
09:05PM 39.9088 -105.1172 333° Northwest  Level Estimated
09:06PM 39.9088 -105.1172 333° Northwest  Level Estimated